Auto, West Virginia
Current Conditions -  °F | °C
As of 1:15 PM on Saturday 25 Oct 2014 (Local Time) from KLWB Reporting Station
Clear Clear  
Wind Chill: 62°   Ceiling: Unl
Heat Index: 62°   Visibility: 10mi
Dew Point: 41°   Wind: 6mph
Humidity: 47%   Direction: 220°SW
Pressure: 30"   Gusts: NA
Location:  37.96°N, 80.33°W
Report Text: KLWB 251715Z AUTO 22005KT 10SM CLR 17/05 A3000 RMK AO2 T01660051
Loading
Personal Weather Stations






























Interactive Weather Map
Tropical Storm Tracking
New forecast layout! Learn more

10-Day Weather Forecast

Advertisements
Track Severe Weather on mobile